Buoy 52514

sailwx.info

Track history (hours):
 
Tides and Currents Weather Stations Pressure Air Temp Water Temp Dewpoint Dewpoint Depression Visibility Wind Speed Wind Dir Waves Ship Positions

Drifting buoy 52514

Last reported at 2017-Mar-13 05:00 UTC. Time now 2017-Oct-18 20:45 UTC.
Position N 16°22' E 122°13'.
Warning: this ship's position is months out of date.

Date/timePositionNaut miles runAvg speedWind from/ knotsBaromVisibWave heightAir tempDewpointWater temp
2017-Mar-13 05:00N 16°22' E 122°13'1 0.1
2017-Mar-13 01:00N 16°22' E 122°13'1 0.2
2017-Mar-12 21:00N 16°22' E 122°14'1 0.8
2017-Mar-12 20:00N 16°23' E 122°13'0 0.0
2017-Mar-12 19:00N 16°23' E 122°13'0 0.0
2017-Mar-12 18:00N 16°23' E 122°13'1 0.2
2017-Mar-12 13:00N 16°22' E 122°14'0 0.0
2017-Mar-12 11:00N 16°22' E 122°14'0 0.0
2017-Mar-12 09:00N 16°22' E 122°14'1 1.3
2017-Mar-12 08:00N 16°23' E 122°14'3 1.5
2017-Mar-12 06:00N 16°26' E 122°16'3 3.0
2017-Mar-12 05:00N 16°23' E 122°14'2 0.6
2017-Mar-12 01:00N 16°25' E 122°16'0 0.0
2017-Mar-11 23:00N 16°25' E 122°16'1 0.8
2017-Mar-11 22:00N 16°26' E 122°16'1 1.3
2017-Mar-11 21:00N 16°27' E 122°16'0 0.0
2017-Mar-11 19:00N 16°27' E 122°16'0 0.0
2017-Mar-11 18:00N 16°27' E 122°16'1 0.3
2017-Mar-11 14:00N 16°28' E 122°15'1 0.8
2017-Mar-11 13:00N 16°28' E 122°16'1 0.3
2017-Mar-11 11:00N 16°28' E 122°15'1 0.8
2017-Mar-11 10:00N 16°29' E 122°16'1 0.6
2017-Mar-11 09:00N 16°29' E 122°16'0 0.0
2017-Mar-11 08:00N 16°29' E 122°16'2 1.1
2017-Mar-11 06:00N 16°30' E 122°18'0 0.0
2017-Mar-11 02:00N 16°30' E 122°18'1 0.4
2017-Mar-10 23:00N 16°29' E 122°18'1 0.6
2017-Mar-10 22:00N 16°29' E 122°19'1 0.6
2017-Mar-10 21:00N 16°28' E 122°19'1 0.6
2017-Mar-10 20:00N 16°29' E 122°19'1 0.6
2017-Mar-10 19:00N 16°29' E 122°18'1 0.6
2017-Mar-10 18:00N 16°28' E 122°18'2 2.1
2017-Mar-10 17:00N 16°26' E 122°17'0 0.0
2017-Mar-10 14:00N 16°26' E 122°17'0 0.0
2017-Mar-10 13:00N 16°26' E 122°17'1 0.6
2017-Mar-10 12:00N 16°26' E 122°17'1 0.4
2017-Mar-10 10:00N 16°26' E 122°18'0 0.0
2017-Mar-10 09:00N 16°26' E 122°18'1 0.4
2017-Mar-10 07:00N 16°25' E 122°19'1 1.3
2017-Mar-10 06:00N 16°26' E 122°20'1 0.1
2017-Mar-10 02:00N 16°25' E 122°20'1 0.3
2017-Mar-10 00:00N 16°25' E 122°19'1 0.6
2017-Mar-09 23:00N 16°25' E 122°20'1 0.8
2017-Mar-09 22:00N 16°25' E 122°19'0 0.0
2017-Mar-09 21:00N 16°25' E 122°19'0 0.0
2017-Mar-09 20:00N 16°25' E 122°19'0 0.0
2017-Mar-09 19:00N 16°25' E 122°19'1 1.2
2017-Mar-09 18:00N 16°23' E 122°19'1 1.3
2017-Mar-09 17:00N 16°25' E 122°19'1 0.4
2017-Mar-09 14:00N 16°23' E 122°19'1 0.8
2017-Mar-09 13:00N 16°23' E 122°19'0 0.0
2017-Mar-09 12:00N 16°23' E 122°19'0 0.0
2017-Mar-09 10:00N 16°23' E 122°19'0 0.0
2017-Mar-09 09:00N 16°23' E 122°19'1 0.6
2017-Mar-09 08:00N 16°23' E 122°19'1 1.2
2017-Mar-09 07:00N 16°22' E 122°19'0 0.0
2017-Mar-09 06:00N 16°22' E 122°19'0 0.0
2017-Mar-09 05:00N 16°22' E 122°19'0 0.0
2017-Mar-09 04:00N 16°22' E 122°19'2 1.2
2017-Mar-09 02:00N 16°19' E 122°20'1 0.6
2017-Mar-09 00:00N 16°18' E 122°20'1 0.8
2017-Mar-08 23:00N 16°17' E 122°20'1 0.8
2017-Mar-08 22:00N 16°17' E 122°21'0 0.0
2017-Mar-08 21:00N 16°17' E 122°21'1 1.3
2017-Mar-08 20:00N 16°16' E 122°22'1 0.8
2017-Mar-08 19:00N 16°15' E 122°22'2 2.5
2017-Mar-08 18:00N 16°13' E 122°23'2 2.5
2017-Mar-08 17:00N 16°15' E 122°22'3 0.8
2017-Mar-08 13:00N 16°12' E 122°23'1 1.3
2017-Mar-08 12:00N 16°11' E 122°23'0 0.0
2017-Mar-08 11:00N 16°11' E 122°23'2 0.8
2017-Mar-08 09:00N 16°10' E 122°25'1 1.3
2017-Mar-08 08:00N 16°08' E 122°25'2 2.1
2017-Mar-08 07:00N 16°07' E 122°26'0 0.0
2017-Mar-08 06:00N 16°07' E 122°26'0 0.0
2017-Mar-08 05:00N 16°07' E 122°26'4 0.6
2017-Mar-07 23:00N 16°05' E 122°30'0 0.0
2017-Mar-07 22:00N 16°05' E 122°30'1 1.3
2017-Mar-07 21:00N 16°04' E 122°31'1 1.2
2017-Mar-07 20:00N 16°04' E 122°32'0 0.0
2017-Mar-07 19:00N 16°04' E 122°32'1 0.8
2017-Mar-07 18:00N 16°04' E 122°33'0 0.0
2017-Mar-07 17:00N 16°04' E 122°33'4 0.9
2017-Mar-07 13:00N 16°03' E 122°37'1 0.8
2017-Mar-07 12:00N 16°02' E 122°37'1 0.8
2017-Mar-07 11:00N 16°03' E 122°38'1 0.6
2017-Mar-07 09:00N 16°03' E 122°39'2 1.2
2017-Mar-07 07:00N 16°03' E 122°41'2 1.2
2017-Mar-07 05:00N 16°03' E 122°44'2 0.6
2017-Mar-07 01:00N 16°04' E 122°46'1 0.6
2017-Mar-06 23:00N 16°04' E 122°47'0 0.0
2017-Mar-06 22:00N 16°04' E 122°47'1 0.6
2017-Mar-06 21:00N 16°04' E 122°48'2 1.8
2017-Mar-06 20:00N 16°03' E 122°50'0 0.0
2017-Mar-06 18:00N 16°03' E 122°50'0 0.0
2017-Mar-06 17:00N 16°03' E 122°50'3 0.9
2017-Mar-06 14:00N 16°02' E 122°52'2 1.7
2017-Mar-06 13:00N 16°02' E 122°54'1 0.6
2017-Mar-06 12:00N 16°02' E 122°55'0 0.0
2017-Mar-06 11:00N 16°02' E 122°55'1 1.3
2017-Mar-06 10:00N 16°01' E 122°56'2 1.8
2017-Mar-06 09:00N 16°02' E 122°58'0 0.0
2017-Mar-06 07:00N 16°02' E 122°58'3 3.1
2017-Mar-06 06:00N 16°03' E 123°01'2 2.1
2017-Mar-06 05:00N 16°02' E 122°59'2 0.7
2017-Mar-06 02:00N 16°03' E 123°01'2 0.4
2017-Mar-05 22:00N 16°03' E 123°02'1 0.6
2017-Mar-05 21:00N 16°03' E 123°03'0 0.0
2017-Mar-05 20:00N 16°03' E 123°03'1 0.6
2017-Mar-05 18:00N 16°03' E 123°04'4 0.7
2017-Mar-05 13:00N 16°04' E 123°08'2 2.3
2017-Mar-05 12:00N 16°04' E 123°10'0 0.0
2017-Mar-05 11:00N 16°04' E 123°10'1 0.6
2017-Mar-05 10:00N 16°04' E 123°11'2 1.8
2017-Mar-05 09:00N 16°05' E 123°13'0 0.0
2017-Mar-05 08:00N 16°05' E 123°13'4 3.5
2017-Mar-05 07:00N 16°05' E 123°16'6 6.2
2017-Mar-05 06:00N 16°08' E 123°22'6 6.2
2017-Mar-05 05:00N 16°05' E 123°16'8 2.5
2017-Mar-05 02:00N 16°08' E 123°23'0 0.0
2017-Mar-05 00:00N 16°08' E 123°23'3 2.9
2017-Mar-04 23:00N 16°09' E 123°26'1 0.6
2017-Mar-04 22:00N 16°09' E 123°27'3 2.9
2017-Mar-04 21:00N 16°08' E 123°30'0 0.0
2017-Mar-04 20:00N 16°08' E 123°30'7 7.1
2017-Mar-04 19:00N 16°10' E 123°37'0 0.0
2017-Mar-04 18:00N 16°10' E 123°37'1 0.3
2017-Mar-04 13:00N 16°11' E 123°38'2 1.8
2017-Mar-04 12:00N 16°11' E 123°40'0 0.0
2017-Mar-04 11:00N 16°11' E 123°40'1 1.2
2017-Mar-04 10:00N 16°11' E 123°41'1 0.6
2017-Mar-04 09:00N 16°11' E 123°42'2 2.4
2017-Mar-04 08:00N 16°11' E 123°44'5 2.4
2017-Mar-04 06:00N 16°12' E 123°49'5 4.8
2017-Mar-04 05:00N 16°11' E 123°44'5 1.6
2017-Mar-04 02:00N 16°12' E 123°49'1 0.8
2017-Mar-04 01:00N 16°13' E 123°50'2 1.1
2017-Mar-03 23:00N 16°14' E 123°52'0 0.0
2017-Mar-03 22:00N 16°14' E 123°52'1 0.6
2017-Mar-03 21:00N 16°14' E 123°52'0 0.0
2017-Mar-03 20:00N 16°14' E 123°52'0 0.0
2017-Mar-03 19:00N 16°14' E 123°52'0 0.0
2017-Mar-03 18:00N 16°14' E 123°52'5 1.1
2017-Mar-03 13:00N 16°16' E 123°57'1 0.8
2017-Mar-03 12:00N 16°16' E 123°58'1 0.8
2017-Mar-03 11:00N 16°17' E 123°58'0 0.0
2017-Mar-03 10:00N 16°17' E 123°58'1 1.3
2017-Mar-03 09:00N 16°16' E 123°57'0 0.0
2017-Mar-03 08:00N 16°16' E 123°57'8 3.8
2017-Mar-03 06:00N 16°17' E 124°05'  
Track history (hours):
 
Tides and Currents Weather Stations Pressure Air Temp Water Temp Dewpoint Dewpoint Depression Visibility Wind Speed Wind Dir Waves Ship Positions

Drifting buoy 52514

Last reported at 2017-Mar-13 05:00 UTC. Time now 2017-Oct-18 20:45 UTC.
Position N 16°22' E 122°13'.
Warning: this ship's position is months out of date.

Date/timePositionNaut miles runAvg speedWind from/ knotsBaromVisibWave heightAir tempDewpointWater temp
2017-Mar-13 05:00N 16°22' E 122°13'1 0.1
2017-Mar-13 01:00N 16°22' E 122°13'1 0.2
2017-Mar-12 21:00N 16°22' E 122°14'1 0.8
2017-Mar-12 20:00N 16°23' E 122°13'0 0.0
2017-Mar-12 19:00N 16°23' E 122°13'0 0.0
2017-Mar-12 18:00N 16°23' E 122°13'1 0.2
2017-Mar-12 13:00N 16°22' E 122°14'0 0.0
2017-Mar-12 11:00N 16°22' E 122°14'0 0.0
2017-Mar-12 09:00N 16°22' E 122°14'1 1.3
2017-Mar-12 08:00N 16°23' E 122°14'3 1.5
2017-Mar-12 06:00N 16°26' E 122°16'3 3.0
2017-Mar-12 05:00N 16°23' E 122°14'2 0.6
2017-Mar-12 01:00N 16°25' E 122°16'0 0.0
2017-Mar-11 23:00N 16°25' E 122°16'1 0.8
2017-Mar-11 22:00N 16°26' E 122°16'1 1.3
2017-Mar-11 21:00N 16°27' E 122°16'0 0.0
2017-Mar-11 19:00N 16°27' E 122°16'0 0.0
2017-Mar-11 18:00N 16°27' E 122°16'1 0.3
2017-Mar-11 14:00N 16°28' E 122°15'1 0.8
2017-Mar-11 13:00N 16°28' E 122°16'1 0.3
2017-Mar-11 11:00N 16°28' E 122°15'1 0.8
2017-Mar-11 10:00N 16°29' E 122°16'1 0.6
2017-Mar-11 09:00N 16°29' E 122°16'0 0.0
2017-Mar-11 08:00N 16°29' E 122°16'2 1.1
2017-Mar-11 06:00N 16°30' E 122°18'0 0.0
2017-Mar-11 02:00N 16°30' E 122°18'1 0.4
2017-Mar-10 23:00N 16°29' E 122°18'1 0.6
2017-Mar-10 22:00N 16°29' E 122°19'1 0.6
2017-Mar-10 21:00N 16°28' E 122°19'1 0.6
2017-Mar-10 20:00N 16°29' E 122°19'1 0.6
2017-Mar-10 19:00N 16°29' E 122°18'1 0.6
2017-Mar-10 18:00N 16°28' E 122°18'2 2.1
2017-Mar-10 17:00N 16°26' E 122°17'0 0.0
2017-Mar-10 14:00N 16°26' E 122°17'0 0.0
2017-Mar-10 13:00N 16°26' E 122°17'1 0.6
2017-Mar-10 12:00N 16°26' E 122°17'1 0.4
2017-Mar-10 10:00N 16°26' E 122°18'0 0.0
2017-Mar-10 09:00N 16°26' E 122°18'1 0.4
2017-Mar-10 07:00N 16°25' E 122°19'1 1.3
2017-Mar-10 06:00N 16°26' E 122°20'1 0.1
2017-Mar-10 02:00N 16°25' E 122°20'1 0.3
2017-Mar-10 00:00N 16°25' E 122°19'1 0.6
2017-Mar-09 23:00N 16°25' E 122°20'1 0.8
2017-Mar-09 22:00N 16°25' E 122°19'0 0.0
2017-Mar-09 21:00N 16°25' E 122°19'0 0.0
2017-Mar-09 20:00N 16°25' E 122°19'0 0.0
2017-Mar-09 19:00N 16°25' E 122°19'1 1.2
2017-Mar-09 18:00N 16°23' E 122°19'1 1.3
2017-Mar-09 17:00N 16°25' E 122°19'1 0.4
2017-Mar-09 14:00N 16°23' E 122°19'1 0.8
2017-Mar-09 13:00N 16°23' E 122°19'0 0.0
2017-Mar-09 12:00N 16°23' E 122°19'0 0.0
2017-Mar-09 10:00N 16°23' E 122°19'0 0.0
2017-Mar-09 09:00N 16°23' E 122°19'1 0.6
2017-Mar-09 08:00N 16°23' E 122°19'1 1.2
2017-Mar-09 07:00N 16°22' E 122°19'0 0.0
2017-Mar-09 06:00N 16°22' E 122°19'0 0.0
2017-Mar-09 05:00N 16°22' E 122°19'0 0.0
2017-Mar-09 04:00N 16°22' E 122°19'2 1.2
2017-Mar-09 02:00N 16°19' E 122°20'1 0.6
2017-Mar-09 00:00N 16°18' E 122°20'1 0.8
2017-Mar-08 23:00N 16°17' E 122°20'1 0.8
2017-Mar-08 22:00N 16°17' E 122°21'0 0.0
2017-Mar-08 21:00N 16°17' E 122°21'1 1.3
2017-Mar-08 20:00N 16°16' E 122°22'1 0.8
2017-Mar-08 19:00N 16°15' E 122°22'2 2.5
2017-Mar-08 18:00N 16°13' E 122°23'2 2.5
2017-Mar-08 17:00N 16°15' E 122°22'3 0.8
2017-Mar-08 13:00N 16°12' E 122°23'1 1.3
2017-Mar-08 12:00N 16°11' E 122°23'0 0.0
2017-Mar-08 11:00N 16°11' E 122°23'2 0.8
2017-Mar-08 09:00N 16°10' E 122°25'1 1.3
2017-Mar-08 08:00N 16°08' E 122°25'2 2.1
2017-Mar-08 07:00N 16°07' E 122°26'0 0.0
2017-Mar-08 06:00N 16°07' E 122°26'0 0.0
2017-Mar-08 05:00N 16°07' E 122°26'4 0.6
2017-Mar-07 23:00N 16°05' E 122°30'0 0.0
2017-Mar-07 22:00N 16°05' E 122°30'1 1.3
2017-Mar-07 21:00N 16°04' E 122°31'1 1.2
2017-Mar-07 20:00N 16°04' E 122°32'0 0.0
2017-Mar-07 19:00N 16°04' E 122°32'1 0.8
2017-Mar-07 18:00N 16°04' E 122°33'0 0.0
2017-Mar-07 17:00N 16°04' E 122°33'4 0.9
2017-Mar-07 13:00N 16°03' E 122°37'1 0.8
2017-Mar-07 12:00N 16°02' E 122°37'1 0.8
2017-Mar-07 11:00N 16°03' E 122°38'1 0.6
2017-Mar-07 09:00N 16°03' E 122°39'2 1.2
2017-Mar-07 07:00N 16°03' E 122°41'2 1.2
2017-Mar-07 05:00N 16°03' E 122°44'2 0.6
2017-Mar-07 01:00N 16°04' E 122°46'1 0.6
2017-Mar-06 23:00N 16°04' E 122°47'0 0.0
2017-Mar-06 22:00N 16°04' E 122°47'1 0.6
2017-Mar-06 21:00N 16°04' E 122°48'2 1.8
2017-Mar-06 20:00N 16°03' E 122°50'0 0.0
2017-Mar-06 18:00N 16°03' E 122°50'0 0.0
2017-Mar-06 17:00N 16°03' E 122°50'3 0.9
2017-Mar-06 14:00N 16°02' E 122°52'2 1.7
2017-Mar-06 13:00N 16°02' E 122°54'1 0.6
2017-Mar-06 12:00N 16°02' E 122°55'0 0.0
2017-Mar-06 11:00N 16°02' E 122°55'1 1.3
2017-Mar-06 10:00N 16°01' E 122°56'2 1.8
2017-Mar-06 09:00N 16°02' E 122°58'0 0.0
2017-Mar-06 07:00N 16°02' E 122°58'3 3.1
2017-Mar-06 06:00N 16°03' E 123°01'2 2.1
2017-Mar-06 05:00N 16°02' E 122°59'2 0.7
2017-Mar-06 02:00N 16°03' E 123°01'2 0.4
2017-Mar-05 22:00N 16°03' E 123°02'1 0.6
2017-Mar-05 21:00N 16°03' E 123°03'0 0.0
2017-Mar-05 20:00N 16°03' E 123°03'1 0.6
2017-Mar-05 18:00N 16°03' E 123°04'4 0.7
2017-Mar-05 13:00N 16°04' E 123°08'2 2.3
2017-Mar-05 12:00N 16°04' E 123°10'0 0.0
2017-Mar-05 11:00N 16°04' E 123°10'1 0.6
2017-Mar-05 10:00N 16°04' E 123°11'2 1.8
2017-Mar-05 09:00N 16°05' E 123°13'0 0.0
2017-Mar-05 08:00N 16°05' E 123°13'4 3.5
2017-Mar-05 07:00N 16°05' E 123°16'6 6.2
2017-Mar-05 06:00N 16°08' E 123°22'6 6.2
2017-Mar-05 05:00N 16°05' E 123°16'8 2.5
2017-Mar-05 02:00N 16°08' E 123°23'0 0.0
2017-Mar-05 00:00N 16°08' E 123°23'3 2.9
2017-Mar-04 23:00N 16°09' E 123°26'1 0.6
2017-Mar-04 22:00N 16°09' E 123°27'3 2.9
2017-Mar-04 21:00N 16°08' E 123°30'0 0.0
2017-Mar-04 20:00N 16°08' E 123°30'7 7.1
2017-Mar-04 19:00N 16°10' E 123°37'0 0.0
2017-Mar-04 18:00N 16°10' E 123°37'1 0.3
2017-Mar-04 13:00N 16°11' E 123°38'2 1.8
2017-Mar-04 12:00N 16°11' E 123°40'0 0.0
2017-Mar-04 11:00N 16°11' E 123°40'1 1.2
2017-Mar-04 10:00N 16°11' E 123°41'1 0.6
2017-Mar-04 09:00N 16°11' E 123°42'2 2.4
2017-Mar-04 08:00N 16°11' E 123°44'5 2.4
2017-Mar-04 06:00N 16°12' E 123°49'5 4.8
2017-Mar-04 05:00N 16°11' E 123°44'5 1.6
2017-Mar-04 02:00N 16°12' E 123°49'1 0.8
2017-Mar-04 01:00N 16°13' E 123°50'2 1.1
2017-Mar-03 23:00N 16°14' E 123°52'0 0.0
2017-Mar-03 22:00N 16°14' E 123°52'1 0.6
2017-Mar-03 21:00N 16°14' E 123°52'0 0.0
2017-Mar-03 20:00N 16°14' E 123°52'0 0.0
2017-Mar-03 19:00N 16°14' E 123°52'0 0.0
2017-Mar-03 18:00N 16°14' E 123°52'5 1.1
2017-Mar-03 13:00N 16°16' E 123°57'1 0.8
2017-Mar-03 12:00N 16°16' E 123°58'1 0.8
2017-Mar-03 11:00N 16°17' E 123°58'0 0.0
2017-Mar-03 10:00N 16°17' E 123°58'1 1.3
2017-Mar-03 09:00N 16°16' E 123°57'0 0.0
2017-Mar-03 08:00N 16°16' E 123°57'8 3.8
2017-Mar-03 06:00N 16°17' E 124°05'  

Dump ship's entire track history